Time;durP1;ratioP1;P1;durP2;ratioP2;P2;SDS_P1;SDS_P2;PMS_P1;PMS_P2;Temp;Humidity;BMP_temperature;BMP_pressure;BME280_temperature;BME280_humidity;BME280_pressure;Samples;Min_cycle;Max_cycle;Signal;HPM_P1;HPM_P2
2023/12/07 00:01:49;;;;;;;10.43;6.18;;;2.40;99.90;;;;;;4988238;28;20131;-72
2023/12/07 00:04:15;;;;;;;8.35;5.57;;;2.40;99.90;;;;;;4989403;28;20052;-71
2023/12/07 00:06:41;;;;;;;10.45;5.55;;;2.40;99.90;;;;;;4989446;28;20455;-71
2023/12/07 00:09:06;;;;;;;9.27;5.25;;;2.40;99.90;;;;;;4976254;28;20050;-71
2023/12/07 00:11:32;;;;;;;9.95;6.07;;;2.40;99.90;;;;;;5005386;28;20046;-72
2023/12/07 00:13:58;;;;;;;6.78;5.22;;;2.40;99.90;;;;;;4989114;28;20050;-72
2023/12/07 00:16:23;;;;;;;7.28;5.70;;;2.40;99.90;;;;;;4973085;28;20087;-71
2023/12/07 00:18:49;;;;;;;7.13;4.95;;;2.40;99.90;;;;;;4988880;28;20054;-71
2023/12/07 00:21:15;;;;;;;5.63;4.70;;;2.30;99.90;;;;;;4956889;28;20045;-71
2023/12/07 00:23:40;;;;;;;5.90;5.18;;;2.30;99.90;;;;;;4972335;28;20617;-72
2023/12/07 00:26:06;;;;;;;6.00;5.22;;;2.30;99.90;;;;;;4973139;28;20057;-71
2023/12/07 00:28:32;;;;;;;5.35;4.80;;;2.30;99.90;;;;;;5005597;28;20085;-72
2023/12/07 00:30:58;;;;;;;12.35;6.05;;;2.30;99.90;;;;;;4988702;28;20172;-72
2023/12/07 00:33:23;;;;;;;9.73;5.93;;;2.30;99.90;;;;;;4988866;28;20516;-71
2023/12/07 00:35:49;;;;;;;6.60;5.13;;;2.30;99.90;;;;;;5004946;28;20668;-72
2023/12/07 00:38:15;;;;;;;8.38;5.70;;;2.30;99.90;;;;;;5004649;28;20050;-72
2023/12/07 00:40:41;;;;;;;8.43;5.35;;;2.20;99.90;;;;;;4988389;28;20151;-71
2023/12/07 00:43:07;;;;;;;8.10;4.80;;;2.20;99.90;;;;;;4989164;28;20049;-71
2023/12/07 00:45:33;;;;;;;9.43;5.45;;;2.20;99.90;;;;;;4987236;28;20519;-72
2023/12/07 00:47:58;;;;;;;11.93;5.43;;;2.30;99.90;;;;;;4984931;28;20053;-71
2023/12/07 00:50:24;;;;;;;8.90;6.00;;;2.30;99.90;;;;;;5002687;28;20049;-71
2023/12/07 00:52:50;;;;;;;19.42;5.70;;;2.30;99.90;;;;;;4987862;28;20268;-72
2023/12/07 00:55:16;;;;;;;6.50;5.28;;;2.30;99.90;;;;;;4984583;28;20050;-71
2023/12/07 00:57:41;;;;;;;9.13;5.05;;;2.20;99.90;;;;;;4985846;28;20056;-71
2023/12/07 01:00:13;;;;;;;9.80;5.68;;;2.30;99.90;;;;;;4972518;28;20444;-71
2023/12/07 01:02:39;;;;;;;7.43;5.13;;;2.30;99.90;;;;;;4986901;28;20058;-71
2023/12/07 01:05:05;;;;;;;6.70;5.15;;;2.30;99.90;;;;;;4988216;28;20099;-71
2023/12/07 01:07:31;;;;;;;10.55;4.78;;;2.30;99.90;;;;;;4962102;28;20049;-71
2023/12/07 01:09:57;;;;;;;10.05;5.28;;;2.30;99.90;;;;;;4988020;28;20042;-71
2023/12/07 01:12:22;;;;;;;9.20;4.82;;;2.30;99.90;;;;;;4988107;28;20057;-71
2023/12/07 01:14:48;;;;;;;7.40;5.03;;;2.30;99.90;;;;;;5004115;28;20115;-72
2023/12/07 01:17:14;;;;;;;6.53;4.90;;;2.30;99.90;;;;;;4988562;28;20497;-71
2023/12/07 01:19:40;;;;;;;7.80;5.75;;;2.30;99.90;;;;;;5004423;28;20446;-72
2023/12/07 01:22:06;;;;;;;6.32;4.47;;;2.30;99.90;;;;;;4987954;28;20067;-71
2023/12/07 01:24:32;;;;;;;7.47;4.85;;;2.30;99.90;;;;;;5004261;28;20053;-72
2023/12/07 01:26:58;;;;;;;6.03;4.93;;;2.30;99.90;;;;;;4987592;28;20038;-71
2023/12/07 01:29:24;;;;;;;6.80;4.93;;;2.30;99.90;;;;;;5004032;28;20050;-71
2023/12/07 01:31:49;;;;;;;7.68;4.85;;;2.30;99.90;;;;;;4985790;28;20064;-71
2023/12/07 01:34:18;;;;;;;5.78;4.32;;;2.30;99.90;;;;;;4987974;28;20056;-71
2023/12/07 01:36:44;;;;;;;8.73;5.18;;;2.30;99.90;;;;;;5003517;28;20057;-71
2023/12/07 01:39:12;;;;;;;6.88;4.63;;;2.30;99.90;;;;;;4987529;28;20152;-71
2023/12/07 01:41:39;;;;;;;8.98;5.30;;;2.30;99.90;;;;;;4988301;28;20053;-71
2023/12/07 01:44:05;;;;;;;6.18;4.70;;;2.30;99.90;;;;;;5003912;28;20399;-71
2023/12/07 01:46:32;;;;;;;8.32;5.40;;;2.40;99.90;;;;;;5004270;28;20512;-71
2023/12/07 01:48:58;;;;;;;12.95;5.07;;;2.30;99.90;;;;;;4970946;28;20042;-71
2023/12/07 01:51:23;;;;;;;9.88;5.40;;;2.30;99.90;;;;;;5003706;28;20052;-71
2023/12/07 01:53:50;;;;;;;6.25;5.13;;;2.40;99.90;;;;;;4987016;28;20140;-71
2023/12/07 01:56:16;;;;;;;10.73;4.97;;;2.30;99.90;;;;;;4974173;28;20400;-71
2023/12/07 01:58:43;;;;;;;7.95;5.57;;;2.30;99.90;;;;;;4986971;28;20050;-71
2023/12/07 02:01:11;;;;;;;6.65;4.97;;;2.30;99.90;;;;;;5003143;28;20048;-71
2023/12/07 02:03:40;;;;;;;7.55;5.13;;;2.30;99.90;;;;;;4987486;28;20061;-71
2023/12/07 02:06:06;;;;;;;8.68;4.57;;;2.30;99.90;;;;;;4986549;28;20042;-71
2023/12/07 02:08:32;;;;;;;8.63;5.43;;;2.30;99.90;;;;;;5003646;28;20065;-71
2023/12/07 02:10:58;;;;;;;12.02;5.40;;;2.20;99.90;;;;;;5004380;28;20125;-71
2023/12/07 02:13:23;;;;;;;5.63;5.03;;;2.20;99.90;;;;;;5004684;28;20046;-71
2023/12/07 02:15:50;;;;;;;7.53;4.90;;;2.20;99.90;;;;;;4986841;28;20100;-71
2023/12/07 02:18:28;;;;;;;7.40;4.85;;;2.30;99.90;;;;;;5003143;28;20050;-71
2023/12/07 02:21:17;;;;;;;6.55;4.70;;;2.20;99.90;;;;;;4986646;28;20056;-71
2023/12/07 02:23:44;;;;;;;5.68;4.82;;;2.20;99.90;;;;;;5004316;28;20508;-72
2023/12/07 02:26:11;;;;;;;7.18;4.85;;;2.20;99.90;;;;;;4997728;28;20050;-71
2023/12/07 02:28:37;;;;;;;6.03;4.80;;;2.20;99.90;;;;;;5004894;28;20483;-71
2023/12/07 02:31:03;;;;;;;7.25;4.97;;;2.20;99.90;;;;;;4990310;28;20142;-71
2023/12/07 02:33:29;;;;;;;6.55;4.68;;;2.20;99.90;;;;;;4967310;28;20108;-71
2023/12/07 02:35:54;;;;;;;7.43;4.80;;;2.20;99.90;;;;;;4982997;28;20142;-72
2023/12/07 02:38:24;;;;;;;7.78;5.20;;;2.20;99.90;;;;;;4967750;28;20050;-71
2023/12/07 02:40:53;;;;;;;6.80;4.50;;;2.10;99.90;;;;;;4967268;28;20053;-71
2023/12/07 02:43:19;;;;;;;8.80;4.88;;;2.20;99.90;;;;;;4967625;28;20050;-71
2023/12/07 02:45:45;;;;;;;6.53;4.63;;;2.10;99.90;;;;;;4966732;28;20128;-71
2023/12/07 02:48:11;;;;;;;6.47;4.28;;;2.20;99.90;;;;;;4950506;28;20054;-71
2023/12/07 02:50:37;;;;;;;7.65;4.90;;;2.20;99.90;;;;;;4983797;28;20054;-71
2023/12/07 02:53:02;;;;;;;6.57;5.13;;;2.10;99.90;;;;;;4982994;28;20429;-71
2023/12/07 02:55:28;;;;;;;7.53;4.82;;;2.20;99.90;;;;;;4983214;28;20161;-71
2023/12/07 02:57:54;;;;;;;6.25;4.90;;;2.30;99.90;;;;;;4966812;28;20489;-70
2023/12/07 03:00:21;;;;;;;7.72;4.93;;;2.20;99.90;;;;;;4983045;28;20093;-72
2023/12/07 03:02:47;;;;;;;5.95;4.78;;;2.20;99.90;;;;;;4982862;28;20038;-71
2023/12/07 03:05:13;;;;;;;6.60;4.55;;;2.10;99.90;;;;;;4982912;28;20076;-71
2023/12/07 03:07:39;;;;;;;7.43;4.75;;;2.20;99.90;;;;;;4966458;28;20042;-71
2023/12/07 03:10:05;;;;;;;5.53;4.57;;;2.10;99.90;;;;;;4976178;28;20081;-71
2023/12/07 03:12:31;;;;;;;6.15;4.68;;;2.10;99.90;;;;;;4960540;28;20054;-73
2023/12/07 03:14:57;;;;;;;7.13;5.00;;;2.10;99.90;;;;;;4966283;28;20054;-71
2023/12/07 03:17:22;;;;;;;7.45;5.15;;;2.10;99.90;;;;;;4983048;28;20053;-71
2023/12/07 03:19:48;;;;;;;6.03;4.05;;;2.10;99.90;;;;;;4966583;28;20393;-71
2023/12/07 03:22:14;;;;;;;9.65;4.95;;;2.10;99.90;;;;;;4982618;28;20117;-71
2023/12/07 03:24:45;;;;;;;7.07;4.43;;;2.10;99.90;;;;;;4950704;28;20043;-71
2023/12/07 03:27:10;;;;;;;7.25;4.70;;;2.10;99.90;;;;;;4965995;28;20054;-71
2023/12/07 03:29:36;;;;;;;6.70;5.22;;;2.20;99.90;;;;;;4967102;28;20059;-71
2023/12/07 03:32:02;;;;;;;8.98;4.50;;;2.30;99.90;;;;;;4985416;28;20076;-71
2023/12/07 03:34:28;;;;;;;5.65;4.43;;;2.30;99.90;;;;;;4986722;28;20558;-71
2023/12/07 03:36:54;;;;;;;7.03;4.40;;;2.20;99.90;;;;;;4969976;28;20046;-71
2023/12/07 03:39:21;;;;;;;7.55;4.65;;;2.30;99.90;;;;;;5001503;28;20408;-71
2023/12/07 03:41:47;;;;;;;10.27;4.60;;;2.20;99.90;;;;;;4986012;28;20042;-71
2023/12/07 03:44:12;;;;;;;6.55;4.22;;;2.30;99.90;;;;;;4969473;28;20120;-71
2023/12/07 03:46:38;;;;;;;6.68;4.88;;;2.30;99.90;;;;;;5002199;28;20046;-71
2023/12/07 03:49:04;;;;;;;8.85;4.30;;;2.20;99.90;;;;;;4985307;28;20097;-71
2023/12/07 03:51:30;;;;;;;13.27;5.32;;;2.30;99.90;;;;;;4986363;28;20061;-71
2023/12/07 03:53:56;;;;;;;7.13;4.60;;;2.30;99.90;;;;;;4969932;28;20057;-71
2023/12/07 03:56:26;;;;;;;5.75;4.70;;;2.30;99.90;;;;;;4969463;28;20054;-71
2023/12/07 03:58:52;;;;;;;6.72;4.93;;;2.20;99.90;;;;;;4969024;28;20052;-71
2023/12/07 04:01:22;;;;;;;5.07;4.28;;;2.30;99.90;;;;;;5001945;28;20435;-71
2023/12/07 04:03:47;;;;;;;5.57;4.60;;;2.30;99.90;;;;;;4985990;28;20049;-71
2023/12/07 04:06:13;;;;;;;6.18;4.82;;;2.20;99.90;;;;;;4969565;28;20400;-71
2023/12/07 04:08:39;;;;;;;6.70;4.68;;;2.20;99.90;;;;;;4969897;28;20053;-71
2023/12/07 04:11:04;;;;;;;8.55;4.40;;;2.30;99.90;;;;;;4983071;28;20519;-71
2023/12/07 04:13:30;;;;;;;9.05;4.68;;;2.30;99.90;;;;;;4965528;28;20049;-71
2023/12/07 04:15:56;;;;;;;7.05;5.05;;;2.30;99.90;;;;;;4997071;28;20491;-72
2023/12/07 04:18:21;;;;;;;8.35;3.95;;;2.30;99.90;;;;;;4968222;28;20313;-71
2023/12/07 04:20:47;;;;;;;7.72;4.72;;;2.20;99.90;;;;;;4985763;28;20053;-71
2023/12/07 04:23:13;;;;;;;8.35;4.32;;;2.20;99.90;;;;;;4989172;28;20104;-71
2023/12/07 04:25:38;;;;;;;9.38;4.70;;;2.10;99.90;;;;;;4989464;28;20435;-71
2023/12/07 04:28:04;;;;;;;11.50;4.72;;;2.10;99.90;;;;;;4989070;28;20111;-72
2023/12/07 04:30:30;;;;;;;5.18;4.13;;;2.10;99.90;;;;;;5004315;28;20057;-71
2023/12/07 04:32:56;;;;;;;9.40;4.22;;;2.10;99.90;;;;;;4985020;28;20049;-71
2023/12/07 04:35:21;;;;;;;6.80;4.38;;;2.10;99.90;;;;;;5020273;28;20053;-71
2023/12/07 04:37:47;;;;;;;6.10;4.32;;;2.20;99.90;;;;;;4988513;28;20041;-71
2023/12/07 04:40:13;;;;;;;4.75;3.80;;;2.10;99.90;;;;;;4972624;28;20046;-71
2023/12/07 04:42:38;;;;;;;6.57;4.13;;;2.10;99.90;;;;;;4965359;28;20046;-71
2023/12/07 04:45:05;;;;;;;6.00;4.13;;;2.10;99.90;;;;;;4983853;28;20049;-71
2023/12/07 04:47:33;;;;;;;6.65;4.38;;;2.00;99.90;;;;;;4971755;28;20057;-71
2023/12/07 04:49:59;;;;;;;4.78;4.07;;;2.10;99.90;;;;;;4988533;28;20108;-71
2023/12/07 04:52:24;;;;;;;7.22;4.20;;;2.00;99.90;;;;;;4988104;28;20520;-71
2023/12/07 04:54:50;;;;;;;7.25;4.60;;;2.00;99.90;;;;;;4989034;28;20057;-71
2023/12/07 04:57:21;;;;;;;6.50;4.45;;;2.00;99.90;;;;;;4972714;28;20069;-71
2023/12/07 04:59:47;;;;;;;6.03;4.10;;;2.00;99.90;;;;;;4972190;28;20042;-71
2023/12/07 05:02:16;;;;;;;6.18;4.13;;;2.00;99.90;;;;;;4987552;28;20053;-71
2023/12/07 05:04:43;;;;;;;6.82;4.13;;;2.00;99.90;;;;;;4972076;28;20113;-71
2023/12/07 05:07:08;;;;;;;5.13;3.90;;;2.00;99.90;;;;;;4988179;28;20042;-71
2023/12/07 05:09:34;;;;;;;5.35;4.05;;;1.90;99.90;;;;;;4988121;28;20514;-71
2023/12/07 05:12:00;;;;;;;5.60;4.93;;;1.90;99.90;;;;;;4988311;28;20081;-71
2023/12/07 05:14:26;;;;;;;4.80;3.80;;;1.90;99.90;;;;;;4987902;28;20049;-71
2023/12/07 05:16:55;;;;;;;5.72;3.78;;;1.90;99.90;;;;;;4988098;28;20053;-71
2023/12/07 05:19:22;;;;;;;6.07;3.95;;;1.90;99.90;;;;;;4971211;28;20050;-71
2023/12/07 05:21:48;;;;;;;10.07;4.25;;;1.90;99.90;;;;;;4984946;28;20101;-71
2023/12/07 05:24:14;;;;;;;7.32;4.00;;;1.90;99.90;;;;;;5012202;28;20432;-71
2023/12/07 05:26:43;;;;;;;5.43;4.00;;;2.00;99.90;;;;;;4971523;28;20042;-71
2023/12/07 05:29:09;;;;;;;6.32;4.00;;;2.00;99.90;;;;;;4971836;28;20056;-71
2023/12/07 05:31:36;;;;;;;10.25;4.28;;;1.90;99.90;;;;;;4987239;28;20112;-71
2023/12/07 05:34:02;;;;;;;5.68;3.85;;;1.90;99.90;;;;;;4986860;28;20137;-71
2023/12/07 05:36:29;;;;;;;4.30;3.90;;;1.90;99.90;;;;;;4987157;28;20132;-71
2023/12/07 05:38:55;;;;;;;10.13;4.38;;;2.00;99.90;;;;;;4987718;28;20405;-71
2023/12/07 05:41:20;;;;;;;4.38;3.78;;;1.90;99.90;;;;;;4987794;28;20086;-71
2023/12/07 05:43:46;;;;;;;4.68;3.28;;;2.00;99.90;;;;;;4971175;28;20046;-71
2023/12/07 05:46:12;;;;;;;5.78;4.00;;;2.00;99.90;;;;;;4987595;28;20049;-71
2023/12/07 05:48:38;;;;;;;5.43;3.63;;;2.00;99.90;;;;;;5002443;28;20100;-71
2023/12/07 05:51:04;;;;;;;12.50;3.90;;;2.10;99.90;;;;;;4988017;28;20523;-71
2023/12/07 05:53:32;;;;;;;4.85;3.65;;;2.10;99.90;;;;;;4987236;28;20053;-71
2023/12/07 05:55:58;;;;;;;4.88;3.38;;;2.10;99.90;;;;;;5005344;28;20052;-71
2023/12/07 05:58:24;;;;;;;4.65;3.33;;;2.00;99.90;;;;;;4986477;28;20112;-71
2023/12/07 06:00:50;;;;;;;3.70;3.25;;;2.10;99.90;;;;;;5002413;28;20050;-71
2023/12/07 06:03:16;;;;;;;4.32;3.42;;;2.10;99.90;;;;;;4987196;28;20049;-71
2023/12/07 06:05:42;;;;;;;6.25;3.60;;;2.10;99.90;;;;;;4987036;28;20049;-71
2023/12/07 06:08:08;;;;;;;5.55;3.33;;;2.00;99.90;;;;;;4987341;28;20054;-71
2023/12/07 06:10:34;;;;;;;5.40;3.50;;;2.10;99.90;;;;;;4985869;28;20535;-71
2023/12/07 06:13:01;;;;;;;5.72;3.40;;;2.00;99.90;;;;;;4971112;28;20073;-71
2023/12/07 06:15:27;;;;;;;4.28;3.30;;;2.10;99.90;;;;;;4987047;28;20046;-71
2023/12/07 06:17:58;;;;;;;6.05;3.13;;;2.10;99.90;;;;;;4986983;28;20076;-71
2023/12/07 06:20:23;;;;;;;;;;;2.00;99.90;;;;;;4987026;28;20459;-71
2023/12/07 06:22:49;;;;;;;7.25;3.45;;;1.90;99.90;;;;;;4986607;28;19925;-72
2023/12/07 06:25:14;;;;;;;9.55;3.78;;;1.90;99.90;;;;;;4986796;28;20045;-71
2023/12/07 06:27:40;;;;;;;6.18;3.60;;;1.90;99.90;;;;;;5002964;28;20069;-71
2023/12/07 06:30:06;;;;;;;9.40;3.75;;;2.00;99.90;;;;;;4986055;28;20058;-72
2023/12/07 06:32:32;;;;;;;4.47;3.70;;;2.00;99.90;;;;;;5002822;28;20058;-71
2023/12/07 06:34:58;;;;;;;4.03;3.65;;;2.00;99.90;;;;;;5003025;28;20317;-71
2023/12/07 06:37:24;;;;;;;3.50;3.20;;;2.00;99.90;;;;;;5002757;28;20042;-71
2023/12/07 06:39:50;;;;;;;3.65;3.25;;;2.00;99.90;;;;;;5004792;28;20072;-71
2023/12/07 06:42:16;;;;;;;5.50;3.35;;;2.00;99.90;;;;;;5002888;28;20068;-72
2023/12/07 06:44:49;;;;;;;6.32;3.20;;;2.00;99.90;;;;;;4986389;28;20061;-71
2023/12/07 06:47:15;;;;;;;3.45;3.00;;;2.00;99.90;;;;;;4986976;28;20504;-71
2023/12/07 06:49:41;;;;;;;3.88;3.42;;;2.10;99.90;;;;;;5002361;28;20057;-71
2023/12/07 06:52:07;;;;;;;7.85;3.40;;;2.00;99.90;;;;;;4986373;28;20115;-71
2023/12/07 06:54:33;;;;;;;3.97;2.95;;;2.00;99.90;;;;;;5002695;28;21031;-71
2023/12/07 06:56:59;;;;;;;4.63;3.90;;;2.00;99.90;;;;;;4986666;28;20054;-71
2023/12/07 06:59:24;;;;;;;4.03;3.67;;;2.00;99.90;;;;;;4970162;28;20046;-71
2023/12/07 07:01:50;;;;;;;5.25;3.50;;;2.00;99.90;;;;;;4969331;28;20158;-71
2023/12/07 07:04:18;;;;;;;5.32;3.58;;;2.00;99.90;;;;;;4970289;28;20052;-71
2023/12/07 07:06:44;;;;;;;6.10;4.03;;;2.00;99.90;;;;;;4969340;28;20080;-71
2023/12/07 07:09:10;;;;;;;5.25;3.80;;;2.00;99.90;;;;;;4982094;28;20053;-71
2023/12/07 07:11:37;;;;;;;4.53;3.22;;;2.10;99.90;;;;;;4942827;28;20038;-71
2023/12/07 07:14:02;;;;;;;5.88;3.72;;;2.00;99.90;;;;;;4984558;28;20509;-71
2023/12/07 07:16:28;;;;;;;5.70;4.30;;;2.00;99.90;;;;;;4970251;28;20046;-71
2023/12/07 07:18:54;;;;;;;4.65;4.25;;;2.10;99.90;;;;;;4986092;28;20399;-72
2023/12/07 07:21:20;;;;;;;6.55;4.13;;;2.00;99.90;;;;;;4985581;28;20523;-71
2023/12/07 07:23:45;;;;;;;5.03;4.53;;;1.90;99.90;;;;;;4985056;28;20041;-71
2023/12/07 07:26:16;;;;;;;4.80;4.30;;;2.00;99.90;;;;;;4969734;28;20057;-71
2023/12/07 07:28:43;;;;;;;6.10;4.07;;;2.00;99.90;;;;;;4969903;28;20083;-71
2023/12/07 07:31:08;;;;;;;6.28;4.20;;;2.00;99.90;;;;;;4985628;28;20050;-71
2023/12/07 07:33:34;;;;;;;6.88;4.50;;;2.00;99.90;;;;;;4985468;28;20046;-71
2023/12/07 07:36:00;;;;;;;4.80;4.00;;;2.00;99.90;;;;;;4985947;28;20142;-71
2023/12/07 07:38:26;;;;;;;7.20;4.65;;;1.90;99.90;;;;;;4985774;28;20073;-71
2023/12/07 07:40:51;;;;;;;5.88;4.05;;;1.80;99.90;;;;;;4975826;28;20317;-72
2023/12/07 07:43:17;;;;;;;5.00;4.20;;;2.00;99.90;;;;;;4969639;28;20042;-71
2023/12/07 07:45:43;;;;;;;5.10;4.30;;;2.00;99.90;;;;;;4985437;28;20041;-71
2023/12/07 07:48:09;;;;;;;8.25;4.65;;;2.00;99.90;;;;;;4985979;28;20550;-71
2023/12/07 07:50:36;;;;;;;8.07;4.22;;;2.10;99.90;;;;;;4968851;28;20125;-71
2023/12/07 07:53:03;;;;;;;9.05;4.45;;;2.00;99.90;;;;;;4985259;28;20045;-71
2023/12/07 07:55:29;;;;;;;7.43;4.95;;;2.10;99.90;;;;;;4985501;28;20118;-71
2023/12/07 07:57:55;;;;;;;7.75;5.10;;;2.00;99.90;;;;;;4989303;28;20078;-71
2023/12/07 08:00:21;;;;;;;7.88;5.10;;;2.10;99.90;;;;;;4989255;28;20139;-71
2023/12/07 08:02:47;;;;;;;6.82;4.47;;;2.10;99.90;;;;;;4988484;28;20038;-71
2023/12/07 08:05:13;;;;;;;8.35;4.90;;;2.10;99.90;;;;;;4981493;28;20508;-71
2023/12/07 08:07:42;;;;;;;6.50;5.47;;;2.10;99.90;;;;;;4987380;28;20508;-71
2023/12/07 08:10:08;;;;;;;10.23;5.88;;;2.10;99.90;;;;;;4988541;28;20049;-71
2023/12/07 08:12:35;;;;;;;9.95;6.15;;;2.10;99.90;;;;;;4989361;28;20169;-71
2023/12/07 08:15:01;;;;;;;7.40;4.90;;;2.10;99.90;;;;;;4972043;28;20042;-71
2023/12/07 08:17:26;;;;;;;7.20;5.00;;;2.10;99.90;;;;;;4989317;28;20099;-71
2023/12/07 08:19:52;;;;;;;11.60;6.05;;;2.20;99.90;;;;;;4972653;28;20496;-71
2023/12/07 08:22:20;;;;;;;7.47;4.60;;;2.20;99.90;;;;;;4956957;28;20101;-71
2023/12/07 08:24:45;;;;;;;9.57;4.97;;;2.10;99.90;;;;;;4988780;28;20049;-71
2023/12/07 08:27:11;;;;;;;6.45;4.85;;;2.20;99.90;;;;;;4956606;28;20038;-71
2023/12/07 08:29:37;;;;;;;9.07;5.10;;;2.10;99.90;;;;;;4989194;28;20128;-71
2023/12/07 08:32:03;;;;;;;5.90;4.97;;;2.10;99.90;;;;;;5003769;28;20143;-72
2023/12/07 08:34:32;;;;;;;7.03;4.93;;;2.10;99.90;;;;;;5019619;28;20399;-71
2023/12/07 08:36:58;;;;;;;6.00;4.47;;;2.10;99.90;;;;;;5002994;28;20057;-71
2023/12/07 08:39:25;;;;;;;7.55;4.78;;;2.10;99.90;;;;;;4970797;28;20049;-72
2023/12/07 08:41:51;;;;;;;11.95;5.07;;;2.10;99.90;;;;;;4987604;28;20411;-71
2023/12/07 08:44:17;;;;;;;7.90;5.05;;;2.20;99.90;;;;;;4988848;28;20061;-71
2023/12/07 08:46:44;;;;;;;11.23;5.32;;;2.30;99.90;;;;;;4987564;28;20046;-71
2023/12/07 08:49:11;;;;;;;14.75;4.82;;;2.40;99.90;;;;;;4967344;28;20149;-72
2023/12/07 08:51:36;;;;;;;8.48;5.15;;;2.40;99.90;;;;;;4963908;28;20404;-71
2023/12/07 08:54:02;;;;;;;6.72;4.88;;;2.40;99.90;;;;;;4986850;28;20046;-71
2023/12/07 08:56:28;;;;;;;8.98;5.55;;;2.50;99.90;;;;;;5002469;28;20054;-71
2023/12/07 08:58:54;;;;;;;17.98;7.45;;;2.50;99.90;;;;;;5004170;28;20728;-71
2023/12/07 09:01:19;;;;;;;19.15;7.75;;;2.50;99.90;;;;;;4987581;28;20041;-71
2023/12/07 09:03:45;;;;;;;12.48;6.57;;;2.60;99.90;;;;;;5005580;28;20046;-71
2023/12/07 09:06:11;;;;;;;11.13;5.68;;;2.60;99.90;;;;;;4972181;28;20485;-71
2023/12/07 09:08:36;;;;;;;6.72;5.28;;;2.60;99.90;;;;;;4971760;28;20054;-71
2023/12/07 09:11:03;;;;;;;6.95;5.28;;;2.70;99.90;;;;;;4987721;28;20432;-71
2023/12/07 09:13:29;;;;;;;6.97;4.78;;;2.70;99.90;;;;;;4984661;28;20492;-71
2023/12/07 09:15:55;;;;;;;10.02;5.65;;;2.70;99.90;;;;;;4970188;28;20041;-71
2023/12/07 09:18:20;;;;;;;14.05;5.45;;;2.70;99.90;;;;;;5003881;28;20382;-71
2023/12/07 09:20:46;;;;;;;8.77;5.32;;;2.80;99.90;;;;;;4971050;28;20044;-71
2023/12/07 09:23:12;;;;;;;6.35;4.70;;;2.80;99.90;;;;;;4971704;28;20308;-71
2023/12/07 09:25:40;;;;;;;7.22;4.85;;;2.90;99.90;;;;;;4987535;28;20042;-71
2023/12/07 09:28:06;;;;;;;9.48;5.15;;;2.90;99.90;;;;;;4987392;28;20045;-71
2023/12/07 09:30:33;;;;;;;9.52;4.90;;;2.80;99.90;;;;;;4987216;28;20100;-71
2023/12/07 09:32:59;;;;;;;6.88;5.30;;;2.90;99.90;;;;;;4988300;28;20049;-71
2023/12/07 09:35:25;;;;;;;8.55;5.78;;;2.90;99.90;;;;;;4971489;28;20125;-71
2023/12/07 09:37:51;;;;;;;7.88;5.22;;;2.90;99.90;;;;;;4987054;28;20062;-71
2023/12/07 09:40:18;;;;;;;7.85;5.07;;;2.90;99.90;;;;;;4971332;28;20206;-71
2023/12/07 09:42:44;;;;;;;7.82;5.65;;;3.00;99.90;;;;;;4987849;28;20370;-71
2023/12/07 09:45:11;;;;;;;9.60;5.60;;;3.00;99.90;;;;;;4987263;28;20421;-71
2023/12/07 09:47:38;;;;;;;8.77;5.88;;;3.10;99.90;;;;;;4971558;28;20504;-71
2023/12/07 09:50:11;;;;;;;7.72;5.18;;;3.10;99.90;;;;;;4970518;28;20594;-72
2023/12/07 09:52:38;;;;;;;14.10;5.93;;;3.20;99.90;;;;;;4980024;28;20046;-72
2023/12/07 09:55:06;;;;;;;13.85;5.95;;;3.20;99.90;;;;;;4970933;28;20049;-71
2023/12/07 09:57:33;;;;;;;8.82;5.97;;;3.20;99.90;;;;;;4987755;28;20053;-71
2023/12/07 09:59:59;;;;;;;6.95;5.25;;;3.30;99.90;;;;;;4986471;28;20107;-71
2023/12/07 10:02:26;;;;;;;8.25;5.70;;;3.20;99.90;;;;;;4970988;28;20050;-71
2023/12/07 10:05:09;;;;;;;10.45;6.25;;;3.30;99.90;;;;;;4986609;28;20050;-71
2023/12/07 10:08:01;;;;;;;9.00;6.75;;;3.20;99.90;;;;;;4986160;28;20053;-71
2023/12/07 10:10:27;;;;;;;8.63;6.10;;;3.40;99.90;;;;;;4982147;28;20834;-71
2023/12/07 10:12:59;;;;;;;11.18;6.47;;;3.40;99.90;;;;;;5017932;28;20140;-71
2023/12/07 10:15:25;;;;;;;11.02;6.43;;;3.50;99.90;;;;;;4987374;28;20046;-71
2023/12/07 10:17:56;;;;;;;8.77;6.82;;;3.50;99.90;;;;;;5003987;28;20049;-71
2023/12/07 10:20:23;;;;;;;10.35;7.00;;;3.60;99.90;;;;;;4974873;28;20095;-71
2023/12/07 10:23:03;;;;;;;10.80;6.57;;;3.60;99.90;;;;;;4986054;28;20117;-71
2023/12/07 10:25:35;;;;;;;9.37;6.37;;;3.60;99.90;;;;;;4977696;28;20373;-71
2023/12/07 10:28:01;;;;;;;11.65;6.07;;;3.60;99.90;;;;;;4985630;28;20289;-71
2023/12/07 10:30:27;;;;;;;13.27;7.85;;;3.70;99.90;;;;;;4986648;28;20062;-71
2023/12/07 10:32:53;;;;;;;9.52;6.40;;;3.80;99.90;;;;;;4985359;28;20493;-71
2023/12/07 10:35:20;;;;;;;10.50;6.95;;;3.80;99.90;;;;;;4986593;28;20057;-71
2023/12/07 10:37:46;;;;;;;11.75;7.00;;;3.80;99.90;;;;;;4985866;28;20050;-71
2023/12/07 10:40:12;;;;;;;12.60;7.13;;;3.80;99.90;;;;;;4970364;28;20411;-71
2023/12/07 10:42:40;;;;;;;14.45;8.15;;;3.90;99.90;;;;;;4985640;28;20404;-71
2023/12/07 10:45:07;;;;;;;14.88;8.63;;;3.90;99.90;;;;;;4985880;28;20045;-71
2023/12/07 10:47:38;;;;;;;16.75;9.57;;;3.80;99.90;;;;;;4986315;28;20289;-71
2023/12/07 10:50:11;;;;;;;15.63;8.73;;;3.90;99.90;;;;;;4966746;28;20050;-71
2023/12/07 10:52:44;;;;;;;18.50;8.35;;;3.80;99.90;;;;;;4985526;28;20041;-71
2023/12/07 10:55:26;;;;;;;16.05;9.68;;;3.80;99.90;;;;;;4985657;28;20050;-71
2023/12/07 10:57:54;;;;;;;12.35;8.18;;;3.80;99.90;;;;;;4978746;28;20065;-71
2023/12/07 11:00:23;;;;;;;16.85;9.70;;;3.90;99.90;;;;;;4969555;28;20038;-71
2023/12/07 11:02:52;;;;;;;15.88;9.55;;;3.80;99.90;;;;;;4985419;28;20054;-71
2023/12/07 11:05:18;;;;;;;22.58;10.57;;;3.80;99.90;;;;;;4985737;28;20073;-71
2023/12/07 11:08:07;;;;;;;19.60;11.55;;;3.90;99.90;;;;;;4985622;28;20500;-71
2023/12/07 11:10:48;;;;;;;15.55;9.63;;;3.90;99.90;;;;;;4986249;28;20065;-71
2023/12/07 11:13:27;;;;;;;16.23;9.90;;;4.00;99.90;;;;;;4984981;28;20531;-71
2023/12/07 11:15:53;;;;;;;13.43;9.38;;;4.00;99.90;;;;;;4986091;28;20481;-71
2023/12/07 11:18:19;;;;;;;14.10;9.85;;;4.00;99.90;;;;;;4969573;28;20053;-71
2023/12/07 11:20:47;;;;;;;13.52;9.60;;;4.00;99.90;;;;;;4986433;28;20609;-71
2023/12/07 11:23:17;;;;;;;17.65;10.25;;;4.00;99.90;;;;;;4982617;28;20053;-71
2023/12/07 11:25:45;;;;;;;13.55;9.05;;;4.00;99.90;;;;;;4986002;28;20129;-71
2023/12/07 11:28:12;;;;;;;13.63;9.85;;;4.00;99.90;;;;;;4985305;28;20512;-71
2023/12/07 11:30:41;;;;;;;15.60;9.48;;;4.00;99.90;;;;;;4985880;28;20049;-71
2023/12/07 11:33:07;;;;;;;18.70;9.40;;;4.10;99.90;;;;;;4957482;28;20050;-72
2023/12/07 11:35:33;;;;;;;14.85;9.23;;;4.00;99.90;;;;;;4973613;28;20056;-71
2023/12/07 11:38:08;;;;;;;17.95;9.35;;;4.00;99.90;;;;;;4990057;28;20085;-71
2023/12/07 11:40:41;;;;;;;19.15;9.88;;;4.10;99.90;;;;;;4989627;28;20045;-72
2023/12/07 11:43:16;;;;;;;18.92;9.43;;;4.20;99.90;;;;;;4989788;28;20061;-71
2023/12/07 11:45:48;;;;;;;21.27;9.82;;;4.20;99.90;;;;;;4989061;28;20486;-71
2023/12/07 11:48:17;;;;;;;20.60;10.07;;;4.20;99.90;;;;;;4989648;28;20045;-71
2023/12/07 11:51:05;;;;;;;14.77;9.55;;;4.20;99.90;;;;;;4989801;28;20073;-71
2023/12/07 11:53:30;;;;;;;12.93;9.35;;;4.20;99.90;;;;;;4989778;28;20093;-71
2023/12/07 11:56:01;;;;;;;12.40;8.60;;;4.30;99.90;;;;;;4989497;28;20077;-71
2023/12/07 11:58:27;;;;;;;;;;;4.30;99.90;;;;;;4973504;28;20184;-71
2023/12/07 12:00:54;;;;;;;15.27;9.27;;;4.30;99.90;;;;;;4989632;28;20296;-71
2023/12/07 12:03:20;;;;;;;13.57;8.35;;;4.30;99.90;;;;;;4989081;28;20477;-71
2023/12/07 12:05:46;;;;;;;15.02;8.30;;;4.40;99.90;;;;;;4988905;28;20050;-71
2023/12/07 12:08:12;;;;;;;15.48;9.68;;;4.40;99.90;;;;;;4989154;28;20053;-71
2023/12/07 12:10:42;;;;;;;13.82;8.57;;;4.40;99.90;;;;;;4989877;28;20064;-71
2023/12/07 12:13:08;;;;;;;;;;;4.40;99.90;;;;;;4974001;28;20285;-71
2023/12/07 12:15:34;;;;;;;13.70;7.95;;;4.40;99.90;;;;;;5004075;28;19925;-71
2023/12/07 12:18:01;;;;;;;16.50;9.77;;;4.50;99.90;;;;;;4989023;28;20049;-71
2023/12/07 12:20:27;;;;;;;14.50;9.10;;;4.60;99.90;;;;;;4988147;28;20129;-71
2023/12/07 12:22:54;;;;;;;15.23;8.68;;;4.60;99.90;;;;;;5000773;28;20097;-71
2023/12/07 12:25:26;;;;;;;13.85;9.35;;;4.60;99.90;;;;;;4975847;28;20045;-71
2023/12/07 12:28:01;;;;;;;18.30;9.40;;;4.70;99.90;;;;;;4988680;28;20050;-71
2023/12/07 12:30:28;;;;;;;18.55;9.52;;;4.70;99.90;;;;;;4997018;28;20457;-71
2023/12/07 12:32:55;;;;;;;14.27;9.38;;;4.70;99.90;;;;;;5005675;28;20128;-71
2023/12/07 12:35:21;;;;;;;16.10;8.55;;;4.70;99.90;;;;;;5006005;28;20481;-71
2023/12/07 12:37:48;;;;;;;15.80;9.77;;;4.70;99.90;;;;;;4986538;28;20491;-71
2023/12/07 12:40:16;;;;;;;13.50;8.80;;;4.70;99.90;;;;;;5004885;28;20080;-70
2023/12/07 12:42:49;;;;;;;20.70;10.40;;;4.70;99.90;;;;;;5006112;28;20046;-71
2023/12/07 12:45:15;;;;;;;18.42;10.60;;;4.70;99.90;;;;;;5004518;28;20050;-70
2023/12/07 12:47:45;;;;;;;15.50;10.50;;;4.80;99.90;;;;;;5004635;28;20123;-70
2023/12/07 12:50:31;;;;;;;16.20;10.48;;;4.80;99.90;;;;;;5020715;28;20494;-70
2023/12/07 12:52:58;;;;;;;20.52;12.63;;;4.80;99.90;;;;;;4972087;28;20038;-70
2023/12/07 12:55:28;;;;;;;20.42;10.90;;;4.70;99.90;;;;;;4988051;28;20049;-71